Time,TemperatureF,DewpointF,PressureIn,WindDirection,WindDirectionDegrees,WindSpeedMPH,WindSpeedGustMPH,Humidity,HourlyPrecipIn,Conditions,Clouds,dailyrainin,SolarRadiationWatts/m^2,SoftwareType,DateUTC
2013-01-08 00:02:00,42.0,30.0,-100.00,SW,218,14.0,24.0,62,0.00,,,0.00,1.000000,,2013-01-08 08:02:00,
2013-01-08 00:22:00,42.0,30.0,-100.00,SW,218,14.0,24.0,62,0.00,,,0.00,1.000000,,2013-01-08 08:22:00,
2013-01-08 00:32:00,42.0,30.0,-100.00,SW,218,14.0,24.0,62,0.00,,,0.00,1.000000,,2013-01-08 08:32:00,
2013-01-08 00:42:00,42.0,30.0,-100.00,SW,218,14.0,24.0,62,0.00,,,0.00,1.000000,,2013-01-08 08:42:00,
2013-01-08 00:52:00,42.0,30.0,-100.00,SW,218,14.0,24.0,62,0.00,,,0.00,1.000000,,2013-01-08 08:52:00,
2013-01-08 01:02:00,41.0,31.0,-100.00,SW,230,6.0,21.0,66,0.00,,,0.00,1.000000,,2013-01-08 09:02:00,
2013-01-08 01:22:00,41.0,31.0,-100.00,SW,230,6.0,21.0,66,0.00,,,0.00,1.000000,,2013-01-08 09:22:00,
2013-01-08 01:33:00,41.0,31.0,-100.00,SW,230,6.0,21.0,66,0.00,,,0.00,1.000000,,2013-01-08 09:33:00,
2013-01-08 01:42:00,41.0,31.0,-100.00,SW,230,6.0,21.0,66,0.00,,,0.00,1.000000,,2013-01-08 09:42:00,
2013-01-08 01:52:00,41.0,31.0,-100.00,SW,230,6.0,21.0,66,0.00,,,0.00,1.000000,,2013-01-08 09:52:00,
2013-01-08 02:02:00,40.0,31.0,-100.00,SW,224,5.0,10.0,70,0.00,,,0.00,1.000000,,2013-01-08 10:02:00,
2013-01-08 02:33:00,40.0,31.0,-100.00,SW,224,5.0,10.0,70,0.00,,,0.00,1.000000,,2013-01-08 10:33:00,
2013-01-08 02:42:00,40.0,31.0,-100.00,SW,224,5.0,10.0,70,0.00,,,0.00,1.000000,,2013-01-08 10:42:00,
2013-01-08 02:52:00,40.0,31.0,-100.00,SW,224,5.0,10.0,70,0.00,,,0.00,1.000000,,2013-01-08 10:52:00,
2013-01-08 03:02:00,40.0,32.0,-100.00,SW,214,3.0,9.0,72,0.00,,,0.00,1.000000,,2013-01-08 11:02:00,
2013-01-08 03:33:00,40.0,32.0,-100.00,SW,214,3.0,9.0,72,0.00,,,0.00,1.000000,,2013-01-08 11:33:00,
2013-01-08 03:42:00,40.0,32.0,-100.00,SW,214,3.0,9.0,72,0.00,,,0.00,1.000000,,2013-01-08 11:42:00,
2013-01-08 03:53:00,40.0,32.0,-100.00,SW,214,3.0,9.0,72,0.00,,,0.00,1.000000,,2013-01-08 11:53:00,
2013-01-08 04:02:00,40.0,31.0,-100.00,ESE,108,2.0,8.0,70,0.00,,,0.00,1.000000,,2013-01-08 12:02:00,
2013-01-08 04:33:00,40.0,31.0,-100.00,ESE,108,2.0,8.0,70,0.00,,,0.00,1.000000,,2013-01-08 12:33:00,
2013-01-08 04:43:00,40.0,31.0,-100.00,ESE,108,2.0,8.0,70,0.00,,,0.00,1.000000,,2013-01-08 12:43:00,
2013-01-08 04:53:00,40.0,31.0,-100.00,ESE,108,2.0,8.0,70,0.00,,,0.00,1.000000,,2013-01-08 12:53:00,
2013-01-08 05:02:00,38.0,31.0,-100.00,South,178,2.0,6.0,76,0.00,,,0.00,1.000000,,2013-01-08 13:02:00,
2013-01-08 05:33:00,38.0,31.0,-100.00,South,178,2.0,6.0,76,0.00,,,0.00,1.000000,,2013-01-08 13:33:00,
2013-01-08 05:43:00,38.0,31.0,-100.00,South,178,2.0,6.0,76,0.00,,,0.00,1.000000,,2013-01-08 13:43:00,
2013-01-08 05:53:00,38.0,31.0,-100.00,South,178,2.0,6.0,76,0.00,,,0.00,1.000000,,2013-01-08 13:53:00,
2013-01-08 06:02:00,42.0,33.0,-100.00,SSW,198,7.0,12.0,69,0.00,,,0.00,1.000000,,2013-01-08 14:02:00,
2013-01-08 06:33:00,42.0,33.0,-100.00,SSW,198,7.0,12.0,69,0.00,,,0.00,1.000000,,2013-01-08 14:33:00,
2013-01-08 06:43:00,42.0,33.0,-100.00,SSW,198,7.0,12.0,69,0.00,,,0.00,1.000000,,2013-01-08 14:43:00,
2013-01-08 06:53:00,42.0,33.0,-100.00,SSW,198,7.0,12.0,69,0.00,,,0.00,1.000000,,2013-01-08 14:53:00,
2013-01-08 07:02:00,43.0,34.0,-100.00,SSW,194,6.0,15.0,70,0.00,,,0.00,1.000000,,2013-01-08 15:02:00,
2013-01-08 07:23:00,43.0,34.0,-100.00,SSW,194,6.0,15.0,70,0.00,,,0.00,1.000000,,2013-01-08 15:23:00,
2013-01-08 07:33:00,43.0,34.0,-100.00,SSW,194,6.0,15.0,70,0.00,,,0.00,1.000000,,2013-01-08 15:33:00,
2013-01-08 07:43:00,43.0,34.0,-100.00,SSW,194,6.0,15.0,70,0.00,,,0.00,1.000000,,2013-01-08 15:43:00,
2013-01-08 07:53:00,43.0,34.0,-100.00,SSW,194,6.0,15.0,70,0.00,,,0.00,1.000000,,2013-01-08 15:53:00,
2013-01-08 08:02:00,45.0,35.0,-100.00,SW,222,10.0,20.0,68,0.00,,,0.00,4.000000,,2013-01-08 16:02:00,
2013-01-08 08:34:00,45.0,35.0,-100.00,SW,222,10.0,20.0,68,0.00,,,0.00,4.000000,,2013-01-08 16:34:00,
2013-01-08 08:43:00,45.0,35.0,-100.00,SW,222,10.0,20.0,68,0.00,,,0.00,4.000000,,2013-01-08 16:43:00,
2013-01-08 08:53:00,45.0,35.0,-100.00,SW,222,10.0,20.0,68,0.00,,,0.00,4.000000,,2013-01-08 16:53:00,
2013-01-08 09:02:00,46.0,36.0,-100.00,SSW,203,8.0,13.0,67,0.00,,,0.00,44.000000,,2013-01-08 17:02:00,
2013-01-08 09:34:00,46.0,36.0,-100.00,SSW,203,8.0,13.0,67,0.00,,,0.00,44.000000,,2013-01-08 17:34:00,
2013-01-08 09:43:00,46.0,36.0,-100.00,SSW,203,8.0,13.0,67,0.00,,,0.00,44.000000,,2013-01-08 17:43:00,
2013-01-08 09:53:00,46.0,36.0,-100.00,SSW,203,8.0,13.0,67,0.00,,,0.00,44.000000,,2013-01-08 17:53:00,
2013-01-08 10:02:00,46.0,35.0,-100.00,SSW,209,11.0,21.0,66,0.00,,,0.00,105.000000,,2013-01-08 18:02:00,
2013-01-08 10:23:00,46.0,35.0,-100.00,SSW,209,11.0,21.0,66,0.00,,,0.00,105.000000,,2013-01-08 18:23:00,
2013-01-08 10:33:00,46.0,35.0,-100.00,SSW,209,11.0,21.0,66,0.00,,,0.00,105.000000,,2013-01-08 18:33:00,
2013-01-08 10:43:00,46.0,35.0,-100.00,SSW,209,11.0,21.0,66,0.00,,,0.00,105.000000,,2013-01-08 18:43:00,
2013-01-08 10:53:00,46.0,35.0,-100.00,SSW,209,11.0,21.0,66,0.00,,,0.00,105.000000,,2013-01-08 18:53:00,
2013-01-08 11:02:00,47.0,36.0,-100.00,SSW,193,13.0,23.0,65,0.00,,,0.00,128.000000,,2013-01-08 19:02:00,
2013-01-08 11:33:00,47.0,36.0,-100.00,SSW,193,13.0,23.0,65,0.00,,,0.00,128.000000,,2013-01-08 19:33:00,
2013-01-08 11:43:00,47.0,36.0,-100.00,SSW,193,13.0,23.0,65,0.00,,,0.00,128.000000,,2013-01-08 19:43:00,
2013-01-08 11:53:00,47.0,36.0,-100.00,SSW,193,13.0,23.0,65,0.00,,,0.00,128.000000,,2013-01-08 19:53:00,
2013-01-08 12:02:00,50.0,36.0,-100.00,SSW,207,13.0,25.0,58,0.00,,,0.00,294.000000,,2013-01-08 20:02:00,
2013-01-08 12:23:00,50.0,36.0,-100.00,SSW,207,13.0,25.0,58,0.00,,,0.00,294.000000,,2013-01-08 20:23:00,
2013-01-08 12:33:00,50.0,36.0,-100.00,SSW,207,13.0,25.0,58,0.00,,,0.00,294.000000,,2013-01-08 20:33:00,
2013-01-08 12:43:00,50.0,36.0,-100.00,SSW,207,13.0,25.0,58,0.00,,,0.00,294.000000,,2013-01-08 20:43:00,
2013-01-08 12:53:00,50.0,36.0,-100.00,SSW,207,13.0,25.0,58,0.00,,,0.00,294.000000,,2013-01-08 20:53:00,
2013-01-08 13:02:00,48.0,36.0,-100.00,South,174,8.0,16.0,63,0.00,,,0.00,141.000000,,2013-01-08 21:02:00,
2013-01-08 13:33:00,48.0,36.0,-100.00,South,174,8.0,16.0,63,0.00,,,0.00,141.000000,,2013-01-08 21:33:00,
2013-01-08 13:43:00,48.0,36.0,-100.00,South,174,8.0,16.0,63,0.00,,,0.00,141.000000,,2013-01-08 21:43:00,
2013-01-08 13:53:00,48.0,36.0,-100.00,South,174,8.0,16.0,63,0.00,,,0.00,141.000000,,2013-01-08 21:53:00,
2013-01-08 14:02:00,53.0,37.0,-100.00,SW,214,8.0,17.0,54,0.00,,,0.00,243.000000,,2013-01-08 22:02:00,
2013-01-08 14:33:00,53.0,37.0,-100.00,SW,214,8.0,17.0,54,0.00,,,0.00,243.000000,,2013-01-08 22:33:00,
2013-01-08 14:43:00,53.0,37.0,-100.00,SW,214,8.0,17.0,54,0.00,,,0.00,243.000000,,2013-01-08 22:43:00,
2013-01-08 14:53:00,53.0,37.0,-100.00,SW,214,8.0,17.0,54,0.00,,,0.00,243.000000,,2013-01-08 22:53:00,
2013-01-08 15:02:00,51.0,36.0,-100.00,SW,233,13.0,25.0,57,0.00,,,0.00,298.000000,,2013-01-08 23:02:00,
2013-01-08 15:33:00,51.0,36.0,-100.00,SW,233,13.0,25.0,57,0.00,,,0.00,298.000000,,2013-01-08 23:33:00,
2013-01-08 15:43:00,51.0,36.0,-100.00,SW,233,13.0,25.0,57,0.00,,,0.00,298.000000,,2013-01-08 23:43:00,
2013-01-08 15:53:00,51.0,36.0,-100.00,SW,233,13.0,25.0,57,0.00,,,0.00,298.000000,,2013-01-08 23:53:00,
2013-01-08 16:02:00,50.0,35.0,-100.00,SW,215,9.0,24.0,57,0.00,,,0.00,162.000000,,2013-01-09 00:02:00,
2013-01-08 16:33:00,50.0,35.0,-100.00,SW,215,9.0,24.0,57,0.00,,,0.00,162.000000,,2013-01-09 00:33:00,
2013-01-08 16:43:00,50.0,35.0,-100.00,SW,215,9.0,24.0,57,0.00,,,0.00,162.000000,,2013-01-09 00:43:00,
2013-01-08 16:52:00,50.0,35.0,-100.00,SW,215,9.0,24.0,57,0.00,,,0.00,162.000000,,2013-01-09 00:52:00,
2013-01-08 17:02:00,45.0,34.0,-100.00,South,188,6.0,9.0,64,0.00,,,0.00,23.000000,,2013-01-09 01:02:00,
2013-01-08 17:33:00,45.0,34.0,-100.00,South,188,6.0,9.0,64,0.00,,,0.00,23.000000,,2013-01-09 01:33:00,
2013-01-08 17:42:00,45.0,34.0,-100.00,South,188,6.0,9.0,64,0.00,,,0.00,23.000000,,2013-01-09 01:42:00,
2013-01-08 17:52:00,45.0,34.0,-100.00,South,188,6.0,9.0,64,0.00,,,0.00,23.000000,,2013-01-09 01:52:00,
2013-01-08 18:02:00,44.0,34.0,-100.00,South,182,8.0,12.0,68,0.00,,,0.00,1.000000,,2013-01-09 02:02:00,
2013-01-08 18:33:00,44.0,34.0,-100.00,South,182,8.0,12.0,68,0.00,,,0.00,1.000000,,2013-01-09 02:33:00,
2013-01-08 18:43:00,44.0,34.0,-100.00,South,182,8.0,12.0,68,0.00,,,0.00,1.000000,,2013-01-09 02:43:00,
2013-01-08 18:53:00,44.0,34.0,-100.00,South,182,8.0,12.0,68,0.00,,,0.00,1.000000,,2013-01-09 02:53:00,
2013-01-08 19:02:00,45.0,34.0,-100.00,South,183,14.0,20.0,65,0.00,,,0.00,1.000000,,2013-01-09 03:02:00,
2013-01-08 19:33:00,45.0,34.0,-100.00,South,183,14.0,20.0,65,0.00,,,0.00,1.000000,,2013-01-09 03:33:00,
2013-01-08 19:43:00,45.0,34.0,-100.00,South,183,14.0,20.0,65,0.00,,,0.00,1.000000,,2013-01-09 03:43:00,
2013-01-08 19:52:00,45.0,34.0,-100.00,South,183,14.0,20.0,65,0.00,,,0.00,1.000000,,2013-01-09 03:52:00,
2013-01-08 20:02:00,45.0,33.0,-100.00,South,186,15.0,26.0,63,0.00,,,0.00,1.000000,,2013-01-09 04:02:00,
2013-01-08 20:23:00,45.0,33.0,-100.00,South,186,15.0,26.0,63,0.00,,,0.00,1.000000,,2013-01-09 04:23:00,
2013-01-08 20:33:00,45.0,33.0,-100.00,South,186,15.0,26.0,63,0.00,,,0.00,1.000000,,2013-01-09 04:33:00,
2013-01-08 20:43:00,45.0,33.0,-100.00,South,186,15.0,26.0,63,0.00,,,0.00,1.000000,,2013-01-09 04:43:00,
2013-01-08 20:52:00,45.0,33.0,-100.00,South,186,15.0,26.0,63,0.00,,,0.00,1.000000,,2013-01-09 04:52:00,
2013-01-08 21:02:00,46.0,34.0,-100.00,South,182,18.0,29.0,63,0.00,,,0.00,1.000000,,2013-01-09 05:02:00,
2013-01-08 21:22:00,46.0,34.0,-100.00,South,182,18.0,29.0,63,0.00,,,0.00,1.000000,,2013-01-09 05:22:00,
2013-01-08 21:33:00,46.0,34.0,-100.00,South,182,18.0,29.0,63,0.00,,,0.00,1.000000,,2013-01-09 05:33:00,
2013-01-08 21:43:00,46.0,34.0,-100.00,South,182,18.0,29.0,63,0.00,,,0.00,1.000000,,2013-01-09 05:43:00,
2013-01-08 21:52:00,46.0,34.0,-100.00,South,182,18.0,29.0,63,0.00,,,0.00,1.000000,,2013-01-09 05:52:00,
2013-01-08 22:02:00,46.0,32.0,-100.00,South,178,18.0,33.0,59,0.00,,,-99.99,1.000000,,2013-01-09 06:02:00,
2013-01-08 22:22:00,46.0,32.0,-100.00,South,178,18.0,33.0,59,0.00,,,-99.99,1.000000,,2013-01-09 06:22:00,
2013-01-08 22:32:00,46.0,32.0,-100.00,South,178,18.0,33.0,59,0.00,,,-99.99,1.000000,,2013-01-09 06:32:00,
2013-01-08 22:42:00,46.0,32.0,-100.00,South,178,18.0,33.0,59,0.00,,,-99.99,1.000000,,2013-01-09 06:42:00,
2013-01-08 22:52:00,46.0,32.0,-100.00,South,178,18.0,33.0,59,0.00,,,-99.99,1.000000,,2013-01-09 06:52:00,
2013-01-08 23:02:00,46.0,32.0,-100.00,South,176,18.0,29.0,58,0.00,,,0.00,1.000000,,2013-01-09 07:02:00,
2013-01-08 23:32:00,46.0,32.0,-100.00,South,176,18.0,29.0,58,0.00,,,0.00,1.000000,,2013-01-09 07:32:00,
2013-01-08 23:42:00,46.0,32.0,-100.00,South,176,18.0,29.0,58,0.00,,,0.00,1.000000,,2013-01-09 07:42:00,
2013-01-08 23:52:00,46.0,32.0,-100.00,South,176,18.0,29.0,58,0.00,,,0.00,1.000000,,2013-01-09 07:52:00,